sensor_id;sensor_type;location;lat;lon;timestamp;pressure;altitude;pressure_sealevel;temperature;humidity
63009;BME280;49099;28.428;-16.488;2023-04-04T00:00:34;98802.56;;;20.02;52.78
63009;BME280;49099;28.428;-16.488;2023-04-04T00:03:02;98801.31;;;20.08;52.46
63009;BME280;49099;28.428;-16.488;2023-04-04T00:05:30;98801.13;;;20.13;52.10
63009;BME280;49099;28.428;-16.488;2023-04-04T00:07:57;98793.50;;;20.15;51.81
63009;BME280;49099;28.428;-16.488;2023-04-04T00:10:25;98787.66;;;20.13;51.48
63009;BME280;49099;28.428;-16.488;2023-04-04T00:12:53;98796.84;;;20.12;51.02
63009;BME280;49099;28.428;-16.488;2023-04-04T00:15:20;98786.88;;;20.04;49.83
63009;BME280;49099;28.428;-16.488;2023-04-04T00:17:48;98784.97;;;20.04;49.96
63009;BME280;49099;28.428;-16.488;2023-04-04T00:20:15;98788.31;;;20.10;49.97
63009;BME280;49099;28.428;-16.488;2023-04-04T00:22:43;98788.31;;;20.10;48.65
63009;BME280;49099;28.428;-16.488;2023-04-04T00:25:10;98783.53;;;20.07;48.84
63009;BME280;49099;28.428;-16.488;2023-04-04T00:27:37;98789.09;;;20.02;49.95
63009;BME280;49099;28.428;-16.488;2023-04-04T00:30:05;98789.09;;;20.02;50.04
63009;BME280;49099;28.428;-16.488;2023-04-04T00:32:32;98782.25;;;20.13;50.16
63009;BME280;49099;28.428;-16.488;2023-04-04T00:35:00;98785.25;;;20.20;49.38
63009;BME280;49099;28.428;-16.488;2023-04-04T00:37:27;98792.41;;;20.25;50.30
63009;BME280;49099;28.428;-16.488;2023-04-04T00:39:54;98790.81;;;20.15;51.27
63009;BME280;49099;28.428;-16.488;2023-04-04T00:42:22;98787.03;;;20.16;52.29
63009;BME280;49099;28.428;-16.488;2023-04-04T00:44:50;98785.41;;;20.15;52.93
63009;BME280;49099;28.428;-16.488;2023-04-04T00:47:21;98783.84;;;20.14;52.95
63009;BME280;49099;28.428;-16.488;2023-04-04T00:49:49;98780.53;;;20.09;53.04
63009;BME280;49099;28.428;-16.488;2023-04-04T00:52:16;98783.41;;;20.03;52.94
63009;BME280;49099;28.428;-16.488;2023-04-04T00:54:44;98777.88;;;20.00;53.44
63009;BME280;49099;28.428;-16.488;2023-04-04T00:57:11;98773.09;;;19.97;53.39
63009;BME280;49099;28.428;-16.488;2023-04-04T00:59:38;98771.38;;;19.92;53.51
63009;BME280;49099;28.428;-16.488;2023-04-04T01:02:05;98767.72;;;19.97;53.51
63009;BME280;49099;28.428;-16.488;2023-04-04T01:04:33;98766.28;;;19.99;54.05
63009;BME280;49099;28.428;-16.488;2023-04-04T01:07:01;98768.34;;;20.02;54.27
63009;BME280;49099;28.428;-16.488;2023-04-04T01:09:31;98762.00;;;20.07;54.13
63009;BME280;49099;28.428;-16.488;2023-04-04T01:11:59;98756.59;;;20.07;54.35
63009;BME280;49099;28.428;-16.488;2023-04-04T01:14:27;98764.41;;;20.00;54.72
63009;BME280;49099;28.428;-16.488;2023-04-04T01:16:58;98757.13;;;20.00;54.76
63009;BME280;49099;28.428;-16.488;2023-04-04T01:19:45;98755.69;;;20.03;55.13
63009;BME280;49099;28.428;-16.488;2023-04-04T01:22:16;98759.63;;;19.97;55.32
63009;BME280;49099;28.428;-16.488;2023-04-04T01:24:45;98755.38;;;19.96;55.27
63009;BME280;49099;28.428;-16.488;2023-04-04T01:27:12;98749.03;;;19.92;55.23
63009;BME280;49099;28.428;-16.488;2023-04-04T01:29:40;98746.81;;;19.94;55.12
63009;BME280;49099;28.428;-16.488;2023-04-04T01:32:12;98751.88;;;20.04;54.43
63009;BME280;49099;28.428;-16.488;2023-04-04T01:37:26;98751.41;;;20.02;54.58
63009;BME280;49099;28.428;-16.488;2023-04-04T01:40:07;98751.25;;;19.98;54.54
63009;BME280;49099;28.428;-16.488;2023-04-04T01:42:39;98752.53;;;20.01;53.85
63009;BME280;49099;28.428;-16.488;2023-04-04T01:45:07;98748.38;;;20.03;54.04
63009;BME280;49099;28.428;-16.488;2023-04-04T01:47:38;98743.94;;;19.99;54.39
63009;BME280;49099;28.428;-16.488;2023-04-04T01:50:07;98745.56;;;20.00;54.33
63009;BME280;49099;28.428;-16.488;2023-04-04T01:52:35;98738.88;;;20.06;53.74
63009;BME280;49099;28.428;-16.488;2023-04-04T01:55:02;98733.50;;;20.06;54.07
63009;BME280;49099;28.428;-16.488;2023-04-04T01:57:30;98732.09;;;20.00;54.17
63009;BME280;49099;28.428;-16.488;2023-04-04T01:59:57;98727.97;;;19.94;55.10
63009;BME280;49099;28.428;-16.488;2023-04-04T02:02:25;98731.94;;;19.96;54.92
63009;BME280;49099;28.428;-16.488;2023-04-04T02:04:52;98732.72;;;19.97;55.11
63009;BME280;49099;28.428;-16.488;2023-04-04T02:07:21;98734.78;;;20.00;54.99
63009;BME280;49099;28.428;-16.488;2023-04-04T02:09:48;98725.75;;;19.96;54.99
63009;BME280;49099;28.428;-16.488;2023-04-04T02:12:16;98727.81;;;19.99;55.00
63009;BME280;49099;28.428;-16.488;2023-04-04T02:14:43;98730.03;;;19.97;55.42
63009;BME280;49099;28.428;-16.488;2023-04-04T02:17:11;98725.59;;;20.01;55.62
63009;BME280;49099;28.428;-16.488;2023-04-04T02:19:38;98718.47;;;19.96;56.22
63009;BME280;49099;28.428;-16.488;2023-04-04T02:22:05;98720.22;;;20.01;55.97
63009;BME280;49099;28.428;-16.488;2023-04-04T02:24:32;98711.47;;;20.04;55.17
63009;BME280;49099;28.428;-16.488;2023-04-04T02:26:59;98711.03;;;20.02;54.64
63009;BME280;49099;28.428;-16.488;2023-04-04T02:29:26;98708.16;;;19.98;54.18
63009;BME280;49099;28.428;-16.488;2023-04-04T02:31:54;98698.03;;;20.04;53.58
63009;BME280;49099;28.428;-16.488;2023-04-04T02:34:21;98687.75;;;19.97;53.42
63009;BME280;49099;28.428;-16.488;2023-04-04T02:36:48;98694.22;;;20.05;53.25
63009;BME280;49099;28.428;-16.488;2023-04-04T02:39:15;98690.28;;;20.02;53.36
63009;BME280;49099;28.428;-16.488;2023-04-04T02:41:42;98688.22;;;20.08;52.71
63009;BME280;49099;28.428;-16.488;2023-04-04T02:44:09;98690.28;;;20.02;52.22
63009;BME280;49099;28.428;-16.488;2023-04-04T02:46:37;98676.03;;;19.93;52.18
63009;BME280;49099;28.428;-16.488;2023-04-04T02:49:04;98685.69;;;20.03;52.29
63009;BME280;49099;28.428;-16.488;2023-04-04T02:51:31;98682.16;;;20.11;52.39
63009;BME280;49099;28.428;-16.488;2023-04-04T02:53:59;98677.69;;;20.15;52.11
63009;BME280;49099;28.428;-16.488;2023-04-04T02:56:28;98686.91;;;20.14;52.27
63009;BME280;49099;28.428;-16.488;2023-04-04T02:58:55;98673.75;;;20.13;51.43
63009;BME280;49099;28.428;-16.488;2023-04-04T03:01:22;98676.78;;;20.11;52.13
63009;BME280;49099;28.428;-16.488;2023-04-04T03:03:50;98665.56;;;20.09;53.98
63009;BME280;49099;28.428;-16.488;2023-04-04T03:06:17;98667.13;;;20.10;54.21
63009;BME280;49099;28.428;-16.488;2023-04-04T03:08:44;98667.59;;;20.12;54.69
63009;BME280;49099;28.428;-16.488;2023-04-04T03:11:15;98666.66;;;20.08;55.18
63009;BME280;49099;28.428;-16.488;2023-04-04T03:13:42;98668.88;;;20.06;55.22
63009;BME280;49099;28.428;-16.488;2023-04-04T03:16:09;98656.53;;;20.05;55.41
63009;BME280;49099;28.428;-16.488;2023-04-04T03:18:37;98649.41;;;20.09;56.08
63009;BME280;49099;28.428;-16.488;2023-04-04T03:21:04;98648.91;;;20.07;56.27
63009;BME280;49099;28.428;-16.488;2023-04-04T03:23:32;98641.47;;;20.04;57.41
63009;BME280;49099;28.428;-16.488;2023-04-04T03:25:59;98643.69;;;20.11;57.21
63009;BME280;49099;28.428;-16.488;2023-04-04T03:28:26;98646.69;;;20.09;57.49
63009;BME280;49099;28.428;-16.488;2023-04-04T03:30:53;98637.34;;;20.07;57.18
63009;BME280;49099;28.428;-16.488;2023-04-04T03:33:20;98636.56;;;20.06;57.12
63009;BME280;49099;28.428;-16.488;2023-04-04T03:35:48;98628.16;;;20.08;57.29
63009;BME280;49099;28.428;-16.488;2023-04-04T03:38:15;98630.53;;;20.09;56.91
63009;BME280;49099;28.428;-16.488;2023-04-04T03:40:42;98626.28;;;20.08;57.32
63009;BME280;49099;28.428;-16.488;2023-04-04T03:43:09;98622.75;;;20.08;56.93
63009;BME280;49099;28.428;-16.488;2023-04-04T03:45:37;98619.63;;;20.06;56.28
63009;BME280;49099;28.428;-16.488;2023-04-04T03:48:05;98626.56;;;20.07;56.50
63009;BME280;49099;28.428;-16.488;2023-04-04T03:50:32;98630.25;;;20.02;56.27
63009;BME280;49099;28.428;-16.488;2023-04-04T03:52:59;98635.47;;;19.98;56.24
63009;BME280;49099;28.428;-16.488;2023-04-04T03:55:26;98631.81;;;20.03;55.90
63009;BME280;49099;28.428;-16.488;2023-04-04T03:57:53;98621.72;;;20.00;55.59
63009;BME280;49099;28.428;-16.488;2023-04-04T04:00:20;98631.53;;;19.96;55.53
63009;BME280;49099;28.428;-16.488;2023-04-04T04:02:47;98626.47;;;19.94;55.39
63009;BME280;49099;28.428;-16.488;2023-04-04T04:05:14;98621.41;;;19.93;55.47
63009;BME280;49099;28.428;-16.488;2023-04-04T04:07:42;98612.72;;;19.87;55.63
63009;BME280;49099;28.428;-16.488;2023-04-04T04:10:10;98622.88;;;19.82;55.90
63009;BME280;49099;28.428;-16.488;2023-04-04T04:12:39;98616.84;;;19.76;55.73
63009;BME280;49099;28.428;-16.488;2023-04-04T04:15:07;98614.66;;;19.78;55.84
63009;BME280;49099;28.428;-16.488;2023-04-04T04:17:38;98618.72;;;19.84;55.23
63009;BME280;49099;28.428;-16.488;2023-04-04T04:20:07;98611.94;;;19.87;54.65
63009;BME280;49099;28.428;-16.488;2023-04-04T04:22:35;98607.47;;;19.91;54.86
63009;BME280;49099;28.428;-16.488;2023-04-04T04:25:02;98598.44;;;19.95;53.79
63009;BME280;49099;28.428;-16.488;2023-04-04T04:27:30;98595.41;;;19.97;53.79
63009;BME280;49099;28.428;-16.488;2023-04-04T04:29:57;98599.69;;;19.98;53.75
63009;BME280;49099;28.428;-16.488;2023-04-04T04:32:24;98588.47;;;19.96;53.48
63009;BME280;49099;28.428;-16.488;2023-04-04T04:34:52;98584.56;;;19.85;53.37
63009;BME280;49099;28.428;-16.488;2023-04-04T04:37:19;98585.34;;;19.76;53.46
63009;BME280;49099;28.428;-16.488;2023-04-04T04:39:46;98580.78;;;19.68;53.29
63009;BME280;49099;28.428;-16.488;2023-04-04T04:42:14;98576.22;;;19.60;53.39
63009;BME280;49099;28.428;-16.488;2023-04-04T04:44:41;98576.06;;;19.57;53.07
63009;BME280;49099;28.428;-16.488;2023-04-04T04:47:08;98573.84;;;19.59;53.09
63009;BME280;49099;28.428;-16.488;2023-04-04T04:49:35;98572.91;;;19.63;52.73
63009;BME280;49099;28.428;-16.488;2023-04-04T04:52:02;98570.50;;;19.70;52.41
63009;BME280;49099;28.428;-16.488;2023-04-04T04:54:30;98572.38;;;19.79;52.87
63009;BME280;49099;28.428;-16.488;2023-04-04T04:56:57;98571.88;;;19.85;52.02
63009;BME280;49099;28.428;-16.488;2023-04-04T04:59:26;98574.53;;;19.94;52.24
63009;BME280;49099;28.428;-16.488;2023-04-04T05:01:53;98575.41;;;20.07;51.78
63009;BME280;49099;28.428;-16.488;2023-04-04T05:04:21;98571.59;;;20.16;51.83
63009;BME280;49099;28.428;-16.488;2023-04-04T05:06:48;98573.94;;;20.18;51.89
63009;BME280;49099;28.428;-16.488;2023-04-04T05:09:15;98570.47;;;20.17;53.01
63009;BME280;49099;28.428;-16.488;2023-04-04T05:15:23;98563.75;;;20.32;52.83
63009;BME280;49099;28.428;-16.488;2023-04-04T05:17:57;98573.84;;;20.35;53.03
63009;BME280;49099;28.428;-16.488;2023-04-04T05:20:25;98573.06;;;20.35;53.10
63009;BME280;49099;28.428;-16.488;2023-04-04T05:22:52;98574.19;;;20.34;53.23
63009;BME280;49099;28.428;-16.488;2023-04-04T05:25:20;98562.00;;;20.27;53.17
63009;BME280;49099;28.428;-16.488;2023-04-04T05:27:47;98570.75;;;20.24;53.69
63009;BME280;49099;28.428;-16.488;2023-04-04T05:30:15;98584.84;;;20.21;54.00
63009;BME280;49099;28.428;-16.488;2023-04-04T05:32:45;98588.38;;;20.13;54.40
63009;BME280;49099;28.428;-16.488;2023-04-04T05:35:12;98598.38;;;20.13;54.32
63009;BME280;49099;28.428;-16.488;2023-04-04T05:37:40;98599.81;;;20.10;58.04
63009;BME280;49099;28.428;-16.488;2023-04-04T05:40:07;98602.28;;;19.86;64.05
63009;BME280;49099;28.428;-16.488;2023-04-04T05:42:35;98603.59;;;19.62;65.74
63009;BME280;49099;28.428;-16.488;2023-04-04T05:45:02;98599.63;;;19.51;66.79
63009;BME280;49099;28.428;-16.488;2023-04-04T05:47:29;98604.69;;;19.44;67.79
63009;BME280;49099;28.428;-16.488;2023-04-04T05:49:56;98619.91;;;19.40;67.56
63009;BME280;49099;28.428;-16.488;2023-04-04T05:52:23;98614.84;;;19.47;67.38
63009;BME280;49099;28.428;-16.488;2023-04-04T05:54:51;98611.19;;;19.52;66.03
63009;BME280;49099;28.428;-16.488;2023-04-04T05:57:18;98632.69;;;19.52;66.49
63009;BME280;49099;28.428;-16.488;2023-04-04T05:59:45;98625.59;;;19.56;66.09
63009;BME280;49099;28.428;-16.488;2023-04-04T06:02:12;98623.84;;;19.68;65.93
63009;BME280;49099;28.428;-16.488;2023-04-04T06:04:39;98625.13;;;19.71;65.99
63009;BME280;49099;28.428;-16.488;2023-04-04T06:07:06;98616.84;;;19.76;66.18
63009;BME280;49099;28.428;-16.488;2023-04-04T06:09:33;98605.00;;;19.68;65.97
63009;BME280;49099;28.428;-16.488;2023-04-04T06:12:02;98622.09;;;19.72;65.46
63009;BME280;49099;28.428;-16.488;2023-04-04T06:14:32;98610.06;;;19.79;65.62
63009;BME280;49099;28.428;-16.488;2023-04-04T06:16:59;98614.50;;;19.74;66.49
63009;BME280;49099;28.428;-16.488;2023-04-04T06:19:26;98614.50;;;19.74;67.07
63009;BME280;49099;28.428;-16.488;2023-04-04T06:21:53;98615.13;;;19.71;66.50
63009;BME280;49099;28.428;-16.488;2023-04-04T06:24:21;98618.00;;;19.66;67.11
63009;BME280;49099;28.428;-16.488;2023-04-04T06:26:48;98627.66;;;19.59;68.11
63009;BME280;49099;28.428;-16.488;2023-04-04T06:29:17;98627.66;;;19.59;68.32
63009;BME280;49099;28.428;-16.488;2023-04-04T06:31:44;98627.19;;;19.57;67.92
63009;BME280;49099;28.428;-16.488;2023-04-04T06:34:11;98629.72;;;19.62;67.61
63009;BME280;49099;28.428;-16.488;2023-04-04T06:36:38;98629.41;;;19.63;68.03
63009;BME280;49099;28.428;-16.488;2023-04-04T06:39:06;98626.53;;;19.68;67.66
63009;BME280;49099;28.428;-16.488;2023-04-04T06:41:33;98630.97;;;19.64;67.47
63009;BME280;49099;28.428;-16.488;2023-04-04T06:44:00;98647.59;;;19.58;68.34
63009;BME280;49099;28.428;-16.488;2023-04-04T06:46:29;98629.06;;;19.56;68.04
63009;BME280;49099;28.428;-16.488;2023-04-04T06:48:57;98643.00;;;19.41;67.57
63009;BME280;49099;28.428;-16.488;2023-04-04T06:51:25;98632.28;;;19.24;66.88
63009;BME280;49099;28.428;-16.488;2023-04-04T06:53:52;98648.41;;;19.24;67.17
63009;BME280;49099;28.428;-16.488;2023-04-04T06:56:19;98649.50;;;19.23;67.22
63009;BME280;49099;28.428;-16.488;2023-04-04T06:58:48;98640.00;;;19.25;66.60
63009;BME280;49099;28.428;-16.488;2023-04-04T07:01:17;98653.59;;;19.20;65.69
63009;BME280;49099;28.428;-16.488;2023-04-04T07:03:44;98654.41;;;19.03;64.83
63009;BME280;49099;28.428;-16.488;2023-04-04T07:06:12;98644.09;;;18.97;64.94
63009;BME280;49099;28.428;-16.488;2023-04-04T07:08:39;98652.16;;;19.05;65.01
63009;BME280;49099;28.428;-16.488;2023-04-04T07:11:06;98658.84;;;18.99;65.12
63009;BME280;49099;28.428;-16.488;2023-04-04T07:13:33;98652.34;;;19.00;65.65
63009;BME280;49099;28.428;-16.488;2023-04-04T07:16:01;98663.56;;;19.02;65.33
63009;BME280;49099;28.428;-16.488;2023-04-04T07:18:28;98661.53;;;18.99;64.35
63009;BME280;49099;28.428;-16.488;2023-04-04T07:20:55;98669.59;;;18.99;64.12
63009;BME280;49099;28.428;-16.488;2023-04-04T07:23:24;98670.53;;;19.03;64.41
63009;BME280;49099;28.428;-16.488;2023-04-04T07:25:51;98663.88;;;19.09;64.20
63009;BME280;49099;28.428;-16.488;2023-04-04T07:28:19;98674.00;;;19.12;63.92
63009;BME280;49099;28.428;-16.488;2023-04-04T07:30:46;98670.53;;;19.12;62.72
63009;BME280;49099;28.428;-16.488;2023-04-04T07:33:13;98678.59;;;19.12;63.44
63009;BME280;49099;28.428;-16.488;2023-04-04T07:35:40;98683.97;;;19.12;62.67
63009;BME280;49099;28.428;-16.488;2023-04-04T07:38:08;98679.84;;;19.06;62.45
63009;BME280;49099;28.428;-16.488;2023-04-04T07:40:36;98682.84;;;19.04;62.12
63009;BME280;49099;28.428;-16.488;2023-04-04T07:43:03;98683.19;;;19.11;62.13
63009;BME280;49099;28.428;-16.488;2023-04-04T07:45:31;98693.78;;;19.16;62.51
63009;BME280;49099;28.428;-16.488;2023-04-04T07:47:58;98696.81;;;19.24;61.86
63009;BME280;49099;28.428;-16.488;2023-04-04T07:50:25;98702.34;;;19.27;61.30
63009;BME280;49099;28.428;-16.488;2023-04-04T07:52:52;98701.72;;;19.30;61.84
63009;BME280;49099;28.428;-16.488;2023-04-04T07:55:24;98709.28;;;19.28;62.13
63009;BME280;49099;28.428;-16.488;2023-04-04T07:57:52;98714.06;;;19.31;61.71
63009;BME280;49099;28.428;-16.488;2023-04-04T08:00:20;98714.53;;;19.25;60.68
63009;BME280;49099;28.428;-16.488;2023-04-04T08:02:52;98719.91;;;19.25;60.22
63009;BME280;49099;28.428;-16.488;2023-04-04T08:05:20;98709.28;;;19.19;60.60
63009;BME280;49099;28.428;-16.488;2023-04-04T08:07:47;98726.84;;;19.26;60.23
63009;BME280;49099;28.428;-16.488;2023-04-04T08:10:15;98727.78;;;19.30;60.44
63009;BME280;49099;28.428;-16.488;2023-04-04T08:12:44;98727.19;;;19.33;59.67
63009;BME280;49099;28.428;-16.488;2023-04-04T08:15:12;98734.94;;;19.34;59.64
63009;BME280;49099;28.428;-16.488;2023-04-04T08:17:39;98731.78;;;19.41;59.62
63009;BME280;49099;28.428;-16.488;2023-04-04T08:20:06;98730.97;;;19.49;58.85
63009;BME280;49099;28.428;-16.488;2023-04-04T08:22:34;98738.91;;;19.54;58.43
63009;BME280;49099;28.428;-16.488;2023-04-04T08:25:01;98726.09;;;19.60;58.39
63009;BME280;49099;28.428;-16.488;2023-04-04T08:27:29;98736.25;;;19.63;59.34
63009;BME280;49099;28.428;-16.488;2023-04-04T08:29:56;98733.69;;;19.66;58.44
63009;BME280;49099;28.428;-16.488;2023-04-04T08:32:23;98731.00;;;19.66;59.40
63009;BME280;49099;28.428;-16.488;2023-04-04T08:34:51;98734.34;;;19.63;59.00
63009;BME280;49099;28.428;-16.488;2023-04-04T08:37:18;98737.50;;;19.65;59.19
63009;BME280;49099;28.428;-16.488;2023-04-04T08:39:45;98742.88;;;19.74;58.44
63009;BME280;49099;28.428;-16.488;2023-04-04T08:42:12;98732.09;;;19.83;58.26
63009;BME280;49099;28.428;-16.488;2023-04-04T08:44:43;98743.97;;;19.90;58.39
63009;BME280;49099;28.428;-16.488;2023-04-04T08:47:12;98742.06;;;19.91;58.12
63009;BME280;49099;28.428;-16.488;2023-04-04T08:49:42;98749.34;;;19.99;58.31
63009;BME280;49099;28.428;-16.488;2023-04-04T08:52:14;98745.56;;;20.00;57.67
63009;BME280;49099;28.428;-16.488;2023-04-04T08:54:45;98747.75;;;20.07;57.76
63009;BME280;49099;28.428;-16.488;2023-04-04T08:57:13;98755.81;;;20.07;55.71
63009;BME280;49099;28.428;-16.488;2023-04-04T08:59:40;98751.72;;;20.09;55.53
63009;BME280;49099;28.428;-16.488;2023-04-04T09:04:36;98747.72;;;20.24;54.96
63009;BME280;49099;28.428;-16.488;2023-04-04T09:07:04;98742.13;;;20.38;54.50
63009;BME280;49099;28.428;-16.488;2023-04-04T09:09:32;98747.19;;;20.56;52.84
63009;BME280;49099;28.428;-16.488;2023-04-04T09:12:00;98749.50;;;20.67;52.63
63009;BME280;49099;28.428;-16.488;2023-04-04T09:14:32;98755.34;;;20.69;52.57
63009;BME280;49099;28.428;-16.488;2023-04-04T09:17:01;98752.34;;;20.70;52.86
63009;BME280;49099;28.428;-16.488;2023-04-04T09:19:29;98745.84;;;20.71;51.92
63009;BME280;49099;28.428;-16.488;2023-04-04T09:21:56;98763.13;;;20.70;50.93
63009;BME280;49099;28.428;-16.488;2023-04-04T09:24:37;98753.94;;;20.71;52.00
63009;BME280;49099;28.428;-16.488;2023-04-04T09:27:06;98752.41;;;20.53;53.61
63009;BME280;49099;28.428;-16.488;2023-04-04T09:29:37;98751.16;;;20.42;53.71
63009;BME280;49099;28.428;-16.488;2023-04-04T09:32:14;98752.59;;;20.39;54.63
63009;BME280;49099;28.428;-16.488;2023-04-04T09:34:44;98750.69;;;20.40;53.80
63009;BME280;49099;28.428;-16.488;2023-04-04T09:37:13;98760.03;;;20.42;53.29
63009;BME280;49099;28.428;-16.488;2023-04-04T09:39:43;98762.09;;;20.45;52.80
63009;BME280;49099;28.428;-16.488;2023-04-04T09:42:10;98753.38;;;20.48;52.75
63009;BME280;49099;28.428;-16.488;2023-04-04T09:44:38;98765.25;;;20.56;53.40
63009;BME280;49099;28.428;-16.488;2023-04-04T09:47:24;98767.56;;;20.66;52.64
63009;BME280;49099;28.428;-16.488;2023-04-04T09:50:00;98770.09;;;20.71;52.68
63009;BME280;49099;28.428;-16.488;2023-04-04T09:52:30;98770.53;;;20.82;52.87
63009;BME280;49099;28.428;-16.488;2023-04-04T09:55:03;98774.75;;;20.92;52.37
63009;BME280;49099;28.428;-16.488;2023-04-04T09:57:33;98779.63;;;20.98;52.58
63009;BME280;49099;28.428;-16.488;2023-04-04T10:00:03;98780.72;;;21.06;52.23
63009;BME280;49099;28.428;-16.488;2023-04-04T10:02:33;98776.44;;;21.05;52.43
63009;BME280;49099;28.428;-16.488;2023-04-04T10:05:02;98779.13;;;21.05;51.83
63009;BME280;49099;28.428;-16.488;2023-04-04T10:07:33;98780.59;;;21.02;52.28
63009;BME280;49099;28.428;-16.488;2023-04-04T10:10:07;98778.34;;;21.04;52.41
63009;BME280;49099;28.428;-16.488;2023-04-04T10:12:37;98783.09;;;21.07;52.34
63009;BME280;49099;28.428;-16.488;2023-04-04T10:15:05;98778.19;;;21.01;52.71
63009;BME280;49099;28.428;-16.488;2023-04-04T10:17:39;98785.41;;;20.88;53.21
63009;BME280;49099;28.428;-16.488;2023-04-04T10:20:08;98789.06;;;20.83;53.95
63009;BME280;49099;28.428;-16.488;2023-04-04T10:22:36;98786.63;;;20.61;55.20
63009;BME280;49099;28.428;-16.488;2023-04-04T10:25:06;98786.38;;;20.19;57.21
63009;BME280;49099;28.428;-16.488;2023-04-04T10:27:35;98779.91;;;20.03;57.33
63009;BME280;49099;28.428;-16.488;2023-04-04T10:30:05;98775.94;;;20.09;57.17
63009;BME280;49099;28.428;-16.488;2023-04-04T10:35:14;98784.31;;;20.34;55.44
63009;BME280;49099;28.428;-16.488;2023-04-04T10:37:53;98783.94;;;20.52;55.17
63009;BME280;49099;28.428;-16.488;2023-04-04T10:40:24;98783.75;;;20.66;54.35
63009;BME280;49099;28.428;-16.488;2023-04-04T10:42:54;98782.47;;;20.72;52.18
63009;BME280;49099;28.428;-16.488;2023-04-04T10:45:24;98766.41;;;20.76;52.44
63009;BME280;49099;28.428;-16.488;2023-04-04T10:47:53;98782.50;;;20.93;51.32
63009;BME280;49099;28.428;-16.488;2023-04-04T10:50:21;98773.75;;;21.05;51.02
63009;BME280;49099;28.428;-16.488;2023-04-04T10:52:49;98765.75;;;21.17;50.85
63009;BME280;49099;28.428;-16.488;2023-04-04T10:55:17;98768.53;;;21.29;50.72
63009;BME280;49099;28.428;-16.488;2023-04-04T10:57:46;98768.03;;;21.36;50.14
63009;BME280;49099;28.428;-16.488;2023-04-04T11:00:18;98775.78;;;21.37;49.99
63009;BME280;49099;28.428;-16.488;2023-04-04T11:07:46;98771.72;;;21.73;48.36
63009;BME280;49099;28.428;-16.488;2023-04-04T11:10:35;98770.00;;;21.68;48.62
63009;BME280;49099;28.428;-16.488;2023-04-04T11:13:08;98771.91;;;21.68;48.83
63009;BME280;49099;28.428;-16.488;2023-04-04T11:21:20;98758.16;;;21.82;48.67
63009;BME280;49099;28.428;-16.488;2023-04-04T11:28:59;98759.59;;;21.37;51.39
63009;BME280;49099;28.428;-16.488;2023-04-04T11:31:31;98760.53;;;21.41;51.45
63009;BME280;49099;28.428;-16.488;2023-04-04T11:34:05;98762.91;;;21.43;51.35
63009;BME280;49099;28.428;-16.488;2023-04-04T11:44:39;98757.25;;;21.36;53.40
63009;BME280;49099;28.428;-16.488;2023-04-04T11:49:40;98755.41;;;21.49;51.88
63009;BME280;49099;28.428;-16.488;2023-04-04T11:52:12;98763.03;;;21.47;51.37
63009;BME280;49099;28.428;-16.488;2023-04-04T11:54:42;98762.66;;;21.57;51.59
63009;BME280;49099;28.428;-16.488;2023-04-04T11:57:11;98760.59;;;21.54;51.58
63009;BME280;49099;28.428;-16.488;2023-04-04T11:59:39;98757.56;;;21.55;51.91
63009;BME280;49099;28.428;-16.488;2023-04-04T12:02:11;98752.31;;;21.59;51.48
63009;BME280;49099;28.428;-16.488;2023-04-04T12:04:40;98749.81;;;21.54;50.97
63009;BME280;49099;28.428;-16.488;2023-04-04T12:07:09;98745.94;;;21.63;50.53
63009;BME280;49099;28.428;-16.488;2023-04-04T12:09:38;98741.31;;;21.64;50.70
63009;BME280;49099;28.428;-16.488;2023-04-04T12:12:07;98737.19;;;21.79;50.61
63009;BME280;49099;28.428;-16.488;2023-04-04T12:14:34;98729.03;;;21.87;49.53
63009;BME280;49099;28.428;-16.488;2023-04-04T12:17:01;98728.72;;;22.01;48.83
63009;BME280;49099;28.428;-16.488;2023-04-04T12:19:29;98733.22;;;22.18;48.14
63009;BME280;49099;28.428;-16.488;2023-04-04T12:21:57;98727.38;;;22.28;47.59
63009;BME280;49099;28.428;-16.488;2023-04-04T12:24:25;98722.63;;;22.25;47.08
63009;BME280;49099;28.428;-16.488;2023-04-04T12:26:52;98718.34;;;22.24;47.95
63009;BME280;49099;28.428;-16.488;2023-04-04T12:29:21;98717.34;;;22.29;46.31
63009;BME280;49099;28.428;-16.488;2023-04-04T12:31:49;98709.84;;;22.34;46.91
63009;BME280;49099;28.428;-16.488;2023-04-04T12:34:23;98706.09;;;22.27;45.71
63009;BME280;49099;28.428;-16.488;2023-04-04T12:36:52;98704.19;;;22.27;46.34
63009;BME280;49099;28.428;-16.488;2023-04-04T12:39:21;98699.03;;;22.34;46.44
63009;BME280;49099;28.428;-16.488;2023-04-04T12:41:59;98705.22;;;22.35;46.26
63009;BME280;49099;28.428;-16.488;2023-04-04T12:47:03;98690.25;;;22.49;44.31
63009;BME280;49099;28.428;-16.488;2023-04-04T12:49:44;98687.50;;;22.25;44.53
63009;BME280;49099;28.428;-16.488;2023-04-04T12:54:50;98681.44;;;21.50;47.01
63009;BME280;49099;28.428;-16.488;2023-04-04T12:57:34;98679.78;;;21.36;47.40
63009;BME280;49099;28.428;-16.488;2023-04-04T13:00:02;98679.09;;;21.39;47.64
63009;BME280;49099;28.428;-16.488;2023-04-04T13:02:36;98671.34;;;21.59;46.12
63009;BME280;49099;28.428;-16.488;2023-04-04T13:05:04;98669.00;;;21.69;46.62
63009;BME280;49099;28.428;-16.488;2023-04-04T13:07:36;98664.38;;;21.70;46.24
63009;BME280;49099;28.428;-16.488;2023-04-04T13:10:12;98663.31;;;21.83;46.06
63009;BME280;49099;28.428;-16.488;2023-04-04T13:12:56;98661.78;;;22.07;44.44
63009;BME280;49099;28.428;-16.488;2023-04-04T13:15:46;98657.06;;;22.04;44.48
63009;BME280;49099;28.428;-16.488;2023-04-04T13:18:16;98655.69;;;21.97;44.44
63009;BME280;49099;28.428;-16.488;2023-04-04T13:20:43;98647.25;;;21.87;44.08
63009;BME280;49099;28.428;-16.488;2023-04-04T13:23:12;98645.41;;;21.79;45.48
63009;BME280;49099;28.428;-16.488;2023-04-04T13:25:39;98645.09;;;21.92;43.79
63009;BME280;49099;28.428;-16.488;2023-04-04T13:28:07;98645.13;;;22.05;43.74
63009;BME280;49099;28.428;-16.488;2023-04-04T13:30:34;98641.13;;;22.11;44.14